createdAt,value
2018-07-26T00:00:18.210Z,20.52
2018-07-26T00:01:18.150Z,20.42
2018-07-26T00:02:18.093Z,20.44
2018-07-26T00:03:18.034Z,20.49
2018-07-26T00:04:17.977Z,20.44
2018-07-26T00:05:17.919Z,20.42
2018-07-26T00:06:17.860Z,20.42
2018-07-26T00:07:17.799Z,20.41
2018-07-26T00:08:17.750Z,20.36
2018-07-26T00:09:17.682Z,20.39
2018-07-26T00:10:17.622Z,20.46
2018-07-26T00:11:17.619Z,20.34
2018-07-26T00:12:17.506Z,20.36
2018-07-26T00:13:17.448Z,20.39
2018-07-26T00:14:17.393Z,20.39
2018-07-26T00:15:17.331Z,20.27
2018-07-26T00:16:17.272Z,20.32
2018-07-26T00:17:17.215Z,20.37
2018-07-26T00:18:17.157Z,20.23
2018-07-26T00:19:17.101Z,20.32
2018-07-26T00:20:17.040Z,20.30
2018-07-26T00:21:16.980Z,20.23
2018-07-26T00:22:16.934Z,20.23
2018-07-26T00:23:16.862Z,20.22
2018-07-26T00:24:16.804Z,20.23
2018-07-26T00:25:16.745Z,20.22
2018-07-26T00:26:16.685Z,20.17
2018-07-26T00:27:16.632Z,20.11
2018-07-26T00:28:16.570Z,20.19
2018-07-26T00:29:16.512Z,20.15
2018-07-26T00:30:16.451Z,20.17
2018-07-26T00:31:16.394Z,20.08
2018-07-26T00:32:16.334Z,20.15
2018-07-26T00:33:16.275Z,20.12
2018-07-26T00:34:16.218Z,20.09
2018-07-26T00:35:16.159Z,20.09
2018-07-26T00:36:16.103Z,20.09
2018-07-26T00:37:16.040Z,20.11
2018-07-26T00:38:15.981Z,20.09
2018-07-26T00:39:15.923Z,20.11
2018-07-26T00:40:15.864Z,20.09
2018-07-26T00:41:15.817Z,20.04
2018-07-26T00:42:15.747Z,20.09
2018-07-26T00:43:15.694Z,20.11
2018-07-26T00:44:15.629Z,20.07
2018-07-26T00:45:15.570Z,20.11
2018-07-26T00:46:15.509Z,20.04
2018-07-26T00:47:15.452Z,20.04
2018-07-26T00:48:15.395Z,20.04
2018-07-26T00:49:15.334Z,20.07
2018-07-26T00:50:15.276Z,20.04
2018-07-26T00:51:15.218Z,20.04
2018-07-26T00:52:15.159Z,19.96
2018-07-26T00:53:15.099Z,19.96
2018-07-26T00:54:15.054Z,20.07
2018-07-26T00:55:14.981Z,20.02
2018-07-26T00:56:14.925Z,20.04
2018-07-26T00:57:14.864Z,20.00
2018-07-26T00:58:14.805Z,19.97
2018-07-26T00:59:14.746Z,19.99
2018-07-26T01:00:14.689Z,19.92
2018-07-26T01:01:14.628Z,19.89
2018-07-26T01:02:14.569Z,19.87
2018-07-26T01:03:14.510Z,19.87
2018-07-26T01:04:14.453Z,19.74
2018-07-26T01:05:14.396Z,19.71
2018-07-26T01:06:14.334Z,19.77
2018-07-26T01:07:14.274Z,19.72
2018-07-26T01:08:14.214Z,19.68
2018-07-26T01:09:14.157Z,19.72
2018-07-26T01:10:14.099Z,19.74
2018-07-26T01:11:14.040Z,19.75
2018-07-26T01:12:13.983Z,19.77
2018-07-26T01:13:13.922Z,19.81
2018-07-26T01:14:13.863Z,19.71
2018-07-26T01:15:13.802Z,19.77
2018-07-26T01:16:13.746Z,19.74
2018-07-26T01:17:13.686Z,19.74
2018-07-26T01:18:13.629Z,19.78
2018-07-26T01:19:13.568Z,19.75
2018-07-26T01:20:13.508Z,19.62
2018-07-26T01:21:13.455Z,19.59
2018-07-26T01:22:13.390Z,19.62
2018-07-26T01:23:13.332Z,19.57
2018-07-26T01:24:13.273Z,19.56
2018-07-26T01:25:13.214Z,19.60
2018-07-26T01:26:13.154Z,19.60
2018-07-26T01:27:13.095Z,19.62
2018-07-26T01:28:13.035Z,19.59
2018-07-26T01:29:12.976Z,19.60
2018-07-26T01:30:12.917Z,19.53
2018-07-26T01:31:12.859Z,19.57
2018-07-26T01:32:12.801Z,19.57
2018-07-26T01:33:12.741Z,19.56
2018-07-26T01:34:12.681Z,19.59
2018-07-26T01:35:12.624Z,19.57
2018-07-26T01:36:12.563Z,19.56
2018-07-26T01:37:12.505Z,19.50
2018-07-26T01:38:12.445Z,19.50
2018-07-26T01:39:12.387Z,19.53
2018-07-26T01:40:12.330Z,19.52
2018-07-26T01:41:12.267Z,19.47
2018-07-26T01:42:12.209Z,19.53
2018-07-26T01:43:12.148Z,19.44
2018-07-26T01:44:12.094Z,19.44
2018-07-26T01:45:12.032Z,19.45
2018-07-26T01:46:11.974Z,19.42
2018-07-26T01:47:12.106Z,19.38
2018-07-26T01:48:11.856Z,19.38
2018-07-26T01:49:11.796Z,19.34
2018-07-26T01:50:11.734Z,19.34
2018-07-26T01:51:11.676Z,19.17
2018-07-26T01:52:11.619Z,19.26
2018-07-26T01:53:11.559Z,19.20
2018-07-26T01:54:11.499Z,19.20
2018-07-26T01:55:11.441Z,19.17
2018-07-26T01:56:11.382Z,19.15
2018-07-26T01:57:11.321Z,19.17
2018-07-26T01:58:11.262Z,19.16
2018-07-26T01:59:11.204Z,19.05
2018-07-26T02:00:11.146Z,19.07
2018-07-26T02:01:11.088Z,19.00
2018-07-26T02:02:11.027Z,19.01
2018-07-26T02:03:10.968Z,19.04
2018-07-26T02:04:10.905Z,19.01
2018-07-26T02:05:10.846Z,19.05
2018-07-26T02:06:10.789Z,19.07
2018-07-26T02:07:10.730Z,19.04
2018-07-26T02:08:10.671Z,19.08
2018-07-26T02:09:10.610Z,19.09
2018-07-26T02:10:10.552Z,19.12
2018-07-26T02:11:10.490Z,19.09
2018-07-26T02:12:10.432Z,19.05
2018-07-26T02:13:10.373Z,19.05
2018-07-26T02:14:10.315Z,19.08
2018-07-26T02:15:10.254Z,19.13
2018-07-26T02:16:10.196Z,19.17
2018-07-26T02:17:10.136Z,19.20
2018-07-26T02:18:10.076Z,19.20
2018-07-26T02:19:10.017Z,19.32
2018-07-26T02:20:09.956Z,19.17
2018-07-26T02:21:09.898Z,19.34
2018-07-26T02:22:09.840Z,19.32
2018-07-26T02:23:09.778Z,19.26
2018-07-26T02:24:09.721Z,19.24
2018-07-26T02:25:09.659Z,19.24
2018-07-26T02:26:09.598Z,19.30
2018-07-26T02:27:09.543Z,19.24
2018-07-26T02:28:09.487Z,19.31
2018-07-26T02:29:09.422Z,19.32
2018-07-26T02:30:09.364Z,19.26
2018-07-26T02:31:09.348Z,19.23
2018-07-26T02:32:09.288Z,19.24
2018-07-26T02:33:09.186Z,19.19
2018-07-26T02:34:09.126Z,19.19
2018-07-26T02:35:09.067Z,19.12
2018-07-26T02:36:09.008Z,19.16
2018-07-26T02:37:08.947Z,19.07
2018-07-26T02:38:08.888Z,19.12
2018-07-26T02:39:08.829Z,19.05
2018-07-26T02:40:08.771Z,19.08
2018-07-26T02:41:08.708Z,19.16
2018-07-26T02:42:08.651Z,19.16
2018-07-26T02:43:08.594Z,19.22
2018-07-26T02:44:08.532Z,19.20
2018-07-26T02:45:08.475Z,19.26
2018-07-26T02:46:08.414Z,19.19
2018-07-26T02:47:08.355Z,19.34
2018-07-26T02:48:08.294Z,19.23
2018-07-26T02:49:08.234Z,19.30
2018-07-26T02:50:08.175Z,19.38
2018-07-26T02:51:08.115Z,19.35
2018-07-26T02:52:08.058Z,19.37
2018-07-26T02:53:08.003Z,19.24
2018-07-26T02:54:07.946Z,19.26
2018-07-26T02:55:07.879Z,19.32
2018-07-26T02:56:07.821Z,19.19
2018-07-26T02:57:07.759Z,19.23
2018-07-26T02:58:07.700Z,19.22
2018-07-26T02:59:07.644Z,19.26
2018-07-26T03:00:07.584Z,19.31
2018-07-26T03:01:07.520Z,19.26
2018-07-26T03:02:07.461Z,19.32
2018-07-26T03:03:07.403Z,19.32
2018-07-26T03:04:07.344Z,19.30
2018-07-26T03:05:07.284Z,19.17
2018-07-26T03:06:07.226Z,19.30
2018-07-26T03:07:07.189Z,19.26
2018-07-26T03:08:07.106Z,19.22
2018-07-26T03:09:07.047Z,19.32
2018-07-26T03:10:06.987Z,19.27
2018-07-26T03:11:06.928Z,19.39
2018-07-26T03:12:06.872Z,19.32
2018-07-26T03:13:06.808Z,19.22
2018-07-26T03:14:06.750Z,19.35
2018-07-26T03:15:06.692Z,19.23
2018-07-26T03:16:06.631Z,19.23
2018-07-26T03:17:06.571Z,19.19
2018-07-26T03:18:06.513Z,19.16
2018-07-26T03:19:06.454Z,19.12
2018-07-26T03:20:06.399Z,19.15
2018-07-26T03:21:06.411Z,19.08
2018-07-26T03:22:06.281Z,19.07
2018-07-26T03:23:06.219Z,19.16
2018-07-26T03:24:06.156Z,19.16
2018-07-26T03:25:06.097Z,19.15
2018-07-26T03:26:06.034Z,19.09
2018-07-26T03:27:05.976Z,19.15
2018-07-26T03:28:05.917Z,19.12
2018-07-26T03:29:05.857Z,19.09
2018-07-26T03:30:05.797Z,19.07
2018-07-26T03:31:05.740Z,19.04
2018-07-26T03:32:05.681Z,19.07
2018-07-26T03:33:05.620Z,19.08
2018-07-26T03:34:05.560Z,19.12
2018-07-26T03:35:05.500Z,18.98
2018-07-26T03:36:05.442Z,19.01
2018-07-26T03:37:05.380Z,19.01
2018-07-26T03:38:05.323Z,18.97
2018-07-26T03:39:05.272Z,18.94
2018-07-26T03:40:05.206Z,18.86
2018-07-26T03:41:05.142Z,18.88
2018-07-26T03:42:05.084Z,18.86
2018-07-26T03:43:05.025Z,18.89
2018-07-26T03:44:04.966Z,18.83
2018-07-26T03:45:04.906Z,18.81
2018-07-26T03:46:04.847Z,18.81
2018-07-26T03:47:04.786Z,18.66
2018-07-26T03:48:04.728Z,18.63
2018-07-26T03:49:04.667Z,18.57
2018-07-26T03:50:04.608Z,18.58
2018-07-26T03:51:04.554Z,18.52
2018-07-26T03:52:04.484Z,18.51
2018-07-26T03:53:04.433Z,18.48
2018-07-26T03:54:04.368Z,18.49
2018-07-26T03:55:04.310Z,18.51
2018-07-26T03:56:04.252Z,18.51
2018-07-26T03:57:04.190Z,18.48
2018-07-26T03:58:04.132Z,18.58
2018-07-26T03:59:04.071Z,18.51
2018-07-26T04:00:04.013Z,18.56
2018-07-26T04:01:03.952Z,18.56
2018-07-26T04:02:03.896Z,18.51
2018-07-26T04:03:03.834Z,18.63
2018-07-26T04:04:03.776Z,18.56
2018-07-26T04:05:03.712Z,18.57
2018-07-26T04:06:03.654Z,18.49
2018-07-26T04:07:03.593Z,18.48
2018-07-26T04:08:03.535Z,18.54
2018-07-26T04:09:03.474Z,18.45
2018-07-26T04:10:03.414Z,18.31
2018-07-26T04:11:03.356Z,18.33
2018-07-26T04:12:03.296Z,18.30
2018-07-26T04:13:03.236Z,18.27
2018-07-26T04:14:03.241Z,18.33
2018-07-26T04:15:03.118Z,18.30
2018-07-26T04:16:03.062Z,18.31
2018-07-26T04:17:02.998Z,18.38
2018-07-26T04:18:02.936Z,18.36
2018-07-26T04:19:02.880Z,18.30
2018-07-26T04:20:02.837Z,18.28
2018-07-26T04:21:02.760Z,18.26
2018-07-26T04:22:02.701Z,18.43
2018-07-26T04:23:02.638Z,18.28
2018-07-26T04:24:02.583Z,18.30
2018-07-26T04:25:02.519Z,18.38
2018-07-26T04:26:02.517Z,18.28
2018-07-26T04:27:02.400Z,18.39
2018-07-26T04:28:02.343Z,18.28
2018-07-26T04:29:02.280Z,18.39
2018-07-26T04:30:02.222Z,18.23
2018-07-26T04:31:02.162Z,18.33
2018-07-26T04:32:02.208Z,18.23
2018-07-26T04:33:02.041Z,18.42
2018-07-26T04:34:01.985Z,18.28
2018-07-26T04:35:01.922Z,18.36
2018-07-26T04:36:01.863Z,18.45
2018-07-26T04:37:01.804Z,18.39
2018-07-26T04:38:01.743Z,18.38
2018-07-26T04:39:01.683Z,18.41
2018-07-26T04:40:01.625Z,18.31
2018-07-26T04:41:01.563Z,18.28
2018-07-26T04:42:01.510Z,18.39
2018-07-26T04:43:01.488Z,18.41
2018-07-26T04:44:01.387Z,18.41
2018-07-26T04:45:01.331Z,18.41
2018-07-26T04:46:01.267Z,18.42
2018-07-26T04:47:01.206Z,18.45
2018-07-26T04:48:01.147Z,18.38
2018-07-26T04:49:01.094Z,18.54
2018-07-26T04:50:01.025Z,18.56
2018-07-26T04:51:00.965Z,18.60
2018-07-26T04:52:00.910Z,18.60
2018-07-26T04:53:00.846Z,18.63
2018-07-26T04:54:00.787Z,18.66
2018-07-26T04:55:00.730Z,18.71
2018-07-26T04:56:00.668Z,18.76
2018-07-26T04:57:00.609Z,18.81
2018-07-26T04:58:00.546Z,18.93
2018-07-26T04:59:00.488Z,18.89
2018-07-26T05:00:00.430Z,18.88
2018-07-26T05:01:00.367Z,18.89
2018-07-26T05:02:00.309Z,18.88
2018-07-26T05:03:00.252Z,19.01
2018-07-26T05:04:00.192Z,18.97
2018-07-26T05:05:00.131Z,18.97
2018-07-26T05:06:00.072Z,19.01
2018-07-26T05:07:00.016Z,19.08
2018-07-26T05:07:59.959Z,19.07
2018-07-26T05:08:59.892Z,19.12
2018-07-26T05:09:59.835Z,19.17
2018-07-26T05:10:59.774Z,19.19
2018-07-26T05:11:59.716Z,19.22
2018-07-26T05:12:59.654Z,19.26
2018-07-26T05:13:59.593Z,19.17
2018-07-26T05:14:59.534Z,19.32
2018-07-26T05:15:59.474Z,19.41
2018-07-26T05:16:59.412Z,19.39
2018-07-26T05:17:59.357Z,19.50
2018-07-26T05:18:59.357Z,19.52
2018-07-26T05:19:59.237Z,19.49
2018-07-26T05:20:59.177Z,19.59
2018-07-26T05:21:59.118Z,19.62
2018-07-26T05:22:59.059Z,19.60
2018-07-26T05:23:59.001Z,19.63
2018-07-26T05:24:58.939Z,19.60
2018-07-26T05:25:58.880Z,19.63
2018-07-26T05:26:58.823Z,19.74
2018-07-26T05:27:58.764Z,19.77
2018-07-26T05:28:58.701Z,19.77
2018-07-26T05:29:58.644Z,19.77
2018-07-26T05:30:58.588Z,19.77
2018-07-26T05:31:58.527Z,19.81
2018-07-26T05:32:58.467Z,19.86
2018-07-26T05:33:58.402Z,19.89
2018-07-26T05:34:58.347Z,19.97
2018-07-26T05:35:58.288Z,19.96
2018-07-26T05:36:58.227Z,19.99
2018-07-26T05:37:58.173Z,20.04
2018-07-26T05:38:58.111Z,20.09
2018-07-26T05:39:58.052Z,20.12
2018-07-26T05:40:57.991Z,20.22
2018-07-26T05:41:57.932Z,20.23
2018-07-26T05:42:57.873Z,20.29
2018-07-26T05:43:57.813Z,20.23
2018-07-26T05:44:57.756Z,20.32
2018-07-26T05:45:57.697Z,20.33
2018-07-26T05:46:57.637Z,20.36
2018-07-26T05:47:57.577Z,20.37
2018-07-26T05:48:57.518Z,20.30
2018-07-26T05:49:57.458Z,20.32
2018-07-26T05:50:57.463Z,20.37
2018-07-26T05:51:57.349Z,20.46
2018-07-26T05:52:57.285Z,20.37
2018-07-26T05:53:57.224Z,20.39
2018-07-26T05:54:57.165Z,20.49
2018-07-26T05:55:57.107Z,20.53
2018-07-26T05:56:57.045Z,20.63
2018-07-26T05:57:56.986Z,20.60
2018-07-26T05:58:56.927Z,20.55
2018-07-26T05:59:56.866Z,20.63
2018-07-26T06:00:56.812Z,20.73
2018-07-26T06:01:56.751Z,20.75
2018-07-26T06:02:56.693Z,20.71
2018-07-26T06:03:56.634Z,20.85
2018-07-26T06:04:56.574Z,20.90
2018-07-26T06:05:56.515Z,21.00
2018-07-26T06:06:56.456Z,20.92
2018-07-26T06:07:56.398Z,21.00
2018-07-26T06:08:56.339Z,21.05
2018-07-26T06:09:56.282Z,21.16
2018-07-26T06:10:56.223Z,21.16
2018-07-26T06:11:56.163Z,21.18
2018-07-26T06:12:56.104Z,21.22
2018-07-26T06:13:56.046Z,21.26
2018-07-26T06:14:55.987Z,21.30
2018-07-26T06:15:55.928Z,21.34
2018-07-26T06:16:55.872Z,21.37
2018-07-26T06:17:55.811Z,21.40
2018-07-26T06:18:55.753Z,21.40
2018-07-26T06:19:55.698Z,21.44
2018-07-26T06:20:55.634Z,21.51
2018-07-26T06:21:55.578Z,21.56
2018-07-26T06:22:55.517Z,21.58
2018-07-26T06:23:55.459Z,21.62
2018-07-26T06:24:55.404Z,21.60
2018-07-26T06:25:55.346Z,21.63
2018-07-26T06:26:55.284Z,21.60
2018-07-26T06:27:55.289Z,21.65
2018-07-26T06:28:55.182Z,21.66
2018-07-26T06:29:55.108Z,21.73
2018-07-26T06:30:55.065Z,21.74
2018-07-26T06:31:54.992Z,21.81
2018-07-26T06:32:54.932Z,21.84
2018-07-26T06:33:54.874Z,21.91
2018-07-26T06:34:54.816Z,21.94
2018-07-26T06:35:54.757Z,22.11
2018-07-26T06:36:54.700Z,22.03
2018-07-26T06:37:54.645Z,22.11
2018-07-26T06:38:54.585Z,22.15
2018-07-26T06:39:54.525Z,22.13
2018-07-26T06:40:54.467Z,22.13
2018-07-26T06:41:54.413Z,22.11
2018-07-26T06:42:54.351Z,22.03
2018-07-26T06:43:54.294Z,22.12
2018-07-26T06:44:54.234Z,22.15
2018-07-26T06:45:54.174Z,22.06
2018-07-26T06:46:54.118Z,22.03
2018-07-26T06:47:54.067Z,22.06
2018-07-26T06:48:54.000Z,22.16
2018-07-26T06:49:53.942Z,22.19
2018-07-26T06:50:53.887Z,22.19
2018-07-26T06:51:53.825Z,22.27
2018-07-26T06:52:53.769Z,22.22
2018-07-26T06:53:53.718Z,22.33
2018-07-26T06:54:53.653Z,22.40
2018-07-26T06:55:53.595Z,22.34
2018-07-26T06:56:53.533Z,22.36
2018-07-26T06:57:53.478Z,22.37
2018-07-26T06:58:53.420Z,22.36
2018-07-26T06:59:53.364Z,22.41
2018-07-26T07:00:53.327Z,22.48
2018-07-26T07:01:53.246Z,22.48
2018-07-26T07:02:53.190Z,22.48
2018-07-26T07:03:53.132Z,22.53
2018-07-26T07:04:53.074Z,22.64
2018-07-26T07:05:53.018Z,22.61
2018-07-26T07:06:52.963Z,22.86
2018-07-26T07:07:52.906Z,22.88
2018-07-26T07:08:52.841Z,22.98
2018-07-26T07:09:52.784Z,23.11
2018-07-26T07:10:52.722Z,23.10
2018-07-26T07:11:52.667Z,23.14
2018-07-26T07:12:52.610Z,23.17
2018-07-26T07:13:52.553Z,23.22
2018-07-26T07:14:52.499Z,23.34
2018-07-26T07:15:52.441Z,23.25
2018-07-26T07:16:52.378Z,23.42
2018-07-26T07:17:52.323Z,23.34
2018-07-26T07:18:52.265Z,23.49
2018-07-26T07:19:52.207Z,23.31
2018-07-26T07:20:52.150Z,23.48
2018-07-26T07:21:52.093Z,23.34
2018-07-26T07:22:52.035Z,23.46
2018-07-26T07:23:51.978Z,23.37
2018-07-26T07:24:51.921Z,23.48
2018-07-26T07:25:51.865Z,23.49
2018-07-26T07:26:51.807Z,23.56
2018-07-26T07:27:51.796Z,23.60
2018-07-26T07:28:51.690Z,23.73
2018-07-26T07:29:51.633Z,23.70
2018-07-26T07:30:51.573Z,23.63
2018-07-26T07:31:51.517Z,23.60
2018-07-26T07:32:51.461Z,23.71
2018-07-26T07:33:51.404Z,23.73
2018-07-26T07:34:51.345Z,23.66
2018-07-26T07:35:51.291Z,23.73
2018-07-26T07:36:51.233Z,23.85
2018-07-26T07:37:51.172Z,23.88
2018-07-26T07:38:51.122Z,23.94
2018-07-26T07:39:51.058Z,23.98
2018-07-26T07:40:51.004Z,23.94
2018-07-26T07:41:50.995Z,23.88
2018-07-26T07:42:50.886Z,24.04
2018-07-26T07:43:50.831Z,24.07
2018-07-26T07:44:50.773Z,24.03
2018-07-26T07:45:50.716Z,24.07
2018-07-26T07:46:50.658Z,24.01
2018-07-26T07:47:50.602Z,24.01
2018-07-26T07:48:50.545Z,23.98
2018-07-26T07:49:50.487Z,24.18
2018-07-26T07:50:50.431Z,24.37
2018-07-26T07:51:50.371Z,24.34
2018-07-26T07:52:50.357Z,24.48
2018-07-26T07:53:50.265Z,24.52
2018-07-26T07:54:50.201Z,24.65
2018-07-26T07:55:50.148Z,24.51
2018-07-26T07:56:50.123Z,24.66
2018-07-26T07:57:50.031Z,24.55
2018-07-26T07:58:49.975Z,24.62
2018-07-26T07:59:49.977Z,24.70
2018-07-26T08:00:49.859Z,24.62
2018-07-26T08:01:49.805Z,24.70
2018-07-26T08:02:49.749Z,24.71
2018-07-26T08:03:49.688Z,24.76
2018-07-26T08:04:49.632Z,24.81
2018-07-26T08:05:49.592Z,24.82
2018-07-26T08:06:49.572Z,24.82
2018-07-26T08:07:49.462Z,24.89
2018-07-26T08:08:49.406Z,24.91
2018-07-26T08:09:49.349Z,24.91
2018-07-26T08:10:49.291Z,24.91
2018-07-26T08:11:49.238Z,24.94
2018-07-26T08:12:49.178Z,24.96
2018-07-26T08:13:49.121Z,24.89
2018-07-26T08:14:49.066Z,25.01
2018-07-26T08:15:49.008Z,25.08
2018-07-26T08:16:48.951Z,25.22
2018-07-26T08:17:48.894Z,25.37
2018-07-26T08:18:48.841Z,25.37
2018-07-26T08:19:48.782Z,25.23
2018-07-26T08:20:48.727Z,25.27
2018-07-26T08:21:48.669Z,25.26
2018-07-26T08:22:48.611Z,25.28
2018-07-26T08:23:48.555Z,25.51
2018-07-26T08:24:48.497Z,25.56
2018-07-26T08:25:48.442Z,25.63
2018-07-26T08:26:48.385Z,25.55
2018-07-26T08:27:48.328Z,25.59
2018-07-26T08:28:48.272Z,25.59
2018-07-26T08:29:48.215Z,25.41
2018-07-26T08:30:48.162Z,25.40
2018-07-26T08:31:48.103Z,25.37
2018-07-26T08:32:48.047Z,25.37
2018-07-26T08:33:47.989Z,25.33
2018-07-26T08:34:47.933Z,25.37
2018-07-26T08:35:47.877Z,25.40
2018-07-26T08:36:47.821Z,25.40
2018-07-26T08:37:47.767Z,25.46
2018-07-26T08:38:47.708Z,25.56
2018-07-26T08:39:47.653Z,25.55
2018-07-26T08:40:47.600Z,25.77
2018-07-26T08:41:47.546Z,26.12
2018-07-26T08:42:47.485Z,26.31
2018-07-26T08:43:47.459Z,26.42
2018-07-26T08:44:47.371Z,26.48
2018-07-26T08:45:47.314Z,26.51
2018-07-26T08:46:47.263Z,26.61
2018-07-26T08:47:47.205Z,26.79
2018-07-26T08:48:47.151Z,26.88
2018-07-26T08:49:47.091Z,27.03
2018-07-26T08:50:47.039Z,27.22
2018-07-26T08:51:46.978Z,27.25
2018-07-26T08:52:46.920Z,27.17
2018-07-26T08:53:46.867Z,27.23
2018-07-26T08:54:46.810Z,27.32
2018-07-26T08:55:46.752Z,27.35
2018-07-26T08:56:46.707Z,27.35
2018-07-26T08:57:46.645Z,27.49
2018-07-26T08:58:46.586Z,27.44
2018-07-26T08:59:46.536Z,27.37
2018-07-26T09:00:46.475Z,27.12
2018-07-26T09:01:46.416Z,26.83
2018-07-26T09:02:46.385Z,26.79
2018-07-26T09:03:46.306Z,26.86
2018-07-26T09:04:46.320Z,26.94
2018-07-26T09:05:46.194Z,27.16
2018-07-26T09:06:46.142Z,27.26
2018-07-26T09:07:46.086Z,27.34
2018-07-26T09:08:46.029Z,27.37
2018-07-26T09:09:45.979Z,27.40
2018-07-26T09:10:45.947Z,27.35
2018-07-26T09:11:45.862Z,27.27
2018-07-26T09:12:45.810Z,27.35
2018-07-26T09:13:45.798Z,27.23
2018-07-26T09:14:45.694Z,27.38
2018-07-26T09:15:45.649Z,27.54
2018-07-26T09:16:45.581Z,27.76
2018-07-26T09:17:45.527Z,27.88
2018-07-26T09:18:45.473Z,28.01
2018-07-26T09:19:45.429Z,28.20
2018-07-26T09:20:45.361Z,28.12
2018-07-26T09:21:45.309Z,28.25
2018-07-26T09:22:45.251Z,28.25
2018-07-26T09:23:45.196Z,28.10
2018-07-26T09:24:45.140Z,28.20
2018-07-26T09:25:45.083Z,28.07
2018-07-26T09:26:45.028Z,28.01
2018-07-26T09:27:44.978Z,28.17
2018-07-26T09:28:44.920Z,28.27
2018-07-26T09:29:44.863Z,28.34
2018-07-26T09:30:44.813Z,28.32
2018-07-26T09:31:44.755Z,28.25
2018-07-26T09:32:44.697Z,28.46
2018-07-26T09:33:44.646Z,28.65
2018-07-26T09:34:44.588Z,28.75
2018-07-26T09:35:44.533Z,28.72
2018-07-26T09:36:44.477Z,28.84
2018-07-26T09:37:44.423Z,29.13
2018-07-26T09:38:44.368Z,29.44
2018-07-26T09:39:44.316Z,29.62
2018-07-26T09:40:44.255Z,29.77
2018-07-26T09:41:44.203Z,30.17
2018-07-26T09:42:44.148Z,30.77
2018-07-26T09:43:44.092Z,31.39
2018-07-26T09:44:44.040Z,31.90
2018-07-26T09:45:43.986Z,32.38
2018-07-26T09:46:43.930Z,32.79
2018-07-26T09:47:43.883Z,32.75
2018-07-26T09:48:43.824Z,32.80
2018-07-26T09:49:43.825Z,33.01
2018-07-26T09:50:43.716Z,33.35
2018-07-26T09:51:43.666Z,33.01
2018-07-26T09:52:43.614Z,31.74
2018-07-26T09:53:43.560Z,30.53
2018-07-26T09:54:43.507Z,30.08
2018-07-26T09:55:43.458Z,29.62
2018-07-26T09:56:43.407Z,30.40
2018-07-26T09:57:43.354Z,31.14
2018-07-26T09:58:43.302Z,31.76
2018-07-26T09:59:43.249Z,31.15
2018-07-26T10:00:43.197Z,30.56
2018-07-26T10:01:43.147Z,30.88
2018-07-26T10:02:43.099Z,30.20
2018-07-26T10:03:43.045Z,29.54
2018-07-26T10:04:42.990Z,29.24
2018-07-26T10:05:42.940Z,29.09
2018-07-26T10:06:42.887Z,28.96
2018-07-26T10:07:42.835Z,29.83
2018-07-26T10:08:42.781Z,30.92
2018-07-26T10:09:42.734Z,31.56
2018-07-26T10:10:42.678Z,31.98
2018-07-26T10:11:42.626Z,32.45
2018-07-26T10:12:42.573Z,33.03
2018-07-26T10:13:42.521Z,33.20
2018-07-26T10:14:42.504Z,33.45
2018-07-26T10:15:42.419Z,33.19
2018-07-26T10:16:42.368Z,33.47
2018-07-26T10:17:42.316Z,32.64
2018-07-26T10:18:42.265Z,31.76
2018-07-26T10:19:42.216Z,32.11
2018-07-26T10:20:42.162Z,32.16
2018-07-26T10:21:42.116Z,32.70
2018-07-26T10:22:42.060Z,32.88
2018-07-26T10:23:42.010Z,33.16
2018-07-26T10:24:41.960Z,33.06
2018-07-26T10:25:41.911Z,31.97
2018-07-26T10:26:41.858Z,31.27
2018-07-26T10:27:41.863Z,30.71
2018-07-26T10:28:41.759Z,30.18
2018-07-26T10:29:41.708Z,29.80
2018-07-26T10:30:41.656Z,29.61
2018-07-26T10:31:41.606Z,30.49
2018-07-26T10:32:41.554Z,31.34
2018-07-26T10:33:41.502Z,31.87
2018-07-26T10:34:41.451Z,32.23
2018-07-26T10:35:41.400Z,32.64
2018-07-26T10:36:41.347Z,32.97
2018-07-26T10:37:41.298Z,32.79
2018-07-26T10:38:41.247Z,32.36
2018-07-26T10:39:41.196Z,31.57
2018-07-26T10:40:41.146Z,31.42
2018-07-26T10:41:41.093Z,31.59
2018-07-26T10:42:41.045Z,31.97
2018-07-26T10:43:40.998Z,31.98
2018-07-26T10:44:40.944Z,32.13
2018-07-26T10:45:40.893Z,32.33
2018-07-26T10:46:40.841Z,32.46
2018-07-26T10:47:40.790Z,32.27
2018-07-26T10:48:40.738Z,31.95
2018-07-26T10:49:40.688Z,31.07
2018-07-26T10:50:40.637Z,30.35
2018-07-26T10:51:40.586Z,29.96
2018-07-26T10:52:40.535Z,29.70
2018-07-26T10:53:40.484Z,29.46
2018-07-26T10:54:40.432Z,29.37
2018-07-26T10:55:40.383Z,29.18
2018-07-26T10:56:40.328Z,29.54
2018-07-26T10:57:40.279Z,30.14
2018-07-26T10:58:40.226Z,30.68
2018-07-26T10:59:40.175Z,30.49
2018-07-26T11:00:40.121Z,30.17
2018-07-26T11:01:40.071Z,29.98
2018-07-26T11:02:40.020Z,29.66
2018-07-26T11:03:40.034Z,29.95
2018-07-26T11:04:39.917Z,30.53
2018-07-26T11:05:39.862Z,31.14
2018-07-26T11:06:39.811Z,31.39
2018-07-26T11:07:39.758Z,31.68
2018-07-26T11:08:39.705Z,31.78
2018-07-26T11:09:39.667Z,31.91
2018-07-26T11:10:39.598Z,31.89
2018-07-26T11:11:39.550Z,31.91
2018-07-26T11:12:39.500Z,31.91
2018-07-26T11:13:39.445Z,31.95
2018-07-26T11:14:39.391Z,31.90
2018-07-26T11:15:39.341Z,31.49
2018-07-26T11:16:39.342Z,30.52
2018-07-26T11:17:39.235Z,30.08
2018-07-26T11:18:39.183Z,29.55
2018-07-26T11:19:39.134Z,29.78
2018-07-26T11:20:39.080Z,29.91
2018-07-26T11:21:39.034Z,30.00
2018-07-26T11:22:38.979Z,29.87
2018-07-26T11:23:38.924Z,29.55
2018-07-26T11:24:38.871Z,29.44
2018-07-26T11:25:38.831Z,29.34
2018-07-26T11:26:38.767Z,29.18
2018-07-26T11:27:38.714Z,29.21
2018-07-26T11:28:38.662Z,29.29
2018-07-26T11:29:38.666Z,29.17
2018-07-26T11:30:38.561Z,29.10
2018-07-26T11:31:38.505Z,29.17
2018-07-26T11:32:38.457Z,29.21
2018-07-26T11:33:38.395Z,29.19
2018-07-26T11:34:38.342Z,29.09
2018-07-26T11:35:38.288Z,29.09
2018-07-26T11:36:38.237Z,28.96
2018-07-26T11:37:38.181Z,28.93
2018-07-26T11:38:38.129Z,29.04
2018-07-26T11:39:38.073Z,29.02
2018-07-26T11:40:38.033Z,29.12
2018-07-26T11:41:38.024Z,29.17
2018-07-26T11:42:37.912Z,29.22
2018-07-26T11:43:37.884Z,29.24
2018-07-26T11:44:37.805Z,29.09
2018-07-26T11:45:37.751Z,29.10
2018-07-26T11:46:37.696Z,29.09
2018-07-26T11:47:37.644Z,29.19
2018-07-26T11:48:37.589Z,29.19
2018-07-26T11:49:37.534Z,29.17
2018-07-26T11:50:37.480Z,29.03
2018-07-26T11:51:37.427Z,29.04
2018-07-26T11:52:37.408Z,28.90
2018-07-26T11:53:37.318Z,28.84
2018-07-26T11:54:37.264Z,28.90
2018-07-26T11:55:37.211Z,28.80
2018-07-26T11:56:37.154Z,28.86
2018-07-26T11:57:37.107Z,28.81
2018-07-26T11:58:37.047Z,28.89
2018-07-26T11:59:36.992Z,28.93
2018-07-26T12:00:36.938Z,28.87
2018-07-26T12:01:36.903Z,28.98
2018-07-26T12:02:36.834Z,29.02
2018-07-26T12:03:36.773Z,29.13
2018-07-26T12:04:36.717Z,29.21
2018-07-26T12:05:36.664Z,29.33
2018-07-26T12:06:36.616Z,29.39
2018-07-26T12:07:36.556Z,29.52
2018-07-26T12:08:36.499Z,29.52
2018-07-26T12:09:36.446Z,29.63
2018-07-26T12:10:36.392Z,29.84
2018-07-26T12:11:36.337Z,29.89
2018-07-26T12:12:36.286Z,29.83
2018-07-26T12:13:36.233Z,29.63
2018-07-26T12:14:36.178Z,29.76
2018-07-26T12:15:36.119Z,29.63
2018-07-26T12:16:36.063Z,29.49
2018-07-26T12:17:36.025Z,29.22
2018-07-26T12:18:35.958Z,28.90
2018-07-26T12:19:35.915Z,28.79
2018-07-26T12:20:35.850Z,28.72
2018-07-26T12:21:35.795Z,28.75
2018-07-26T12:22:35.736Z,28.66
2018-07-26T12:23:35.684Z,28.68
2018-07-26T12:24:35.627Z,28.68
2018-07-26T12:25:35.577Z,28.68
2018-07-26T12:26:35.519Z,28.59
2018-07-26T12:27:35.463Z,28.64
2018-07-26T12:28:35.411Z,28.66
2018-07-26T12:29:35.354Z,28.79
2018-07-26T12:30:35.300Z,28.84
2018-07-26T12:31:35.246Z,28.87
2018-07-26T12:32:35.194Z,28.84
2018-07-26T12:33:35.139Z,28.83
2018-07-26T12:34:35.080Z,28.79
2018-07-26T12:35:35.030Z,28.65
2018-07-26T12:36:34.973Z,28.69
2018-07-26T12:37:34.917Z,28.66
2018-07-26T12:38:34.862Z,28.69
2018-07-26T12:39:34.808Z,28.65
2018-07-26T12:40:34.752Z,28.65
2018-07-26T12:41:34.700Z,28.61
2018-07-26T12:42:34.644Z,28.47
2018-07-26T12:43:34.596Z,28.44
2018-07-26T12:44:34.535Z,28.40
2018-07-26T12:45:34.482Z,28.34
2018-07-26T12:46:34.426Z,28.35
2018-07-26T12:47:34.420Z,28.25
2018-07-26T12:48:34.315Z,28.32
2018-07-26T12:49:34.265Z,28.32
2018-07-26T12:50:34.204Z,28.27
2018-07-26T12:51:34.151Z,28.35